Time;durP1;ratioP1;P1;durP2;ratioP2;P2;SDS_P1;SDS_P2;PMS_P1;PMS_P2;Temp;Humidity;BMP_temperature;BMP_pressure;BME280_temperature;BME280_humidity;BME280_pressure;Samples;Min_cycle;Max_cycle;Signal;HPM_P1;HPM_P2
2022/03/04 00:01:43;;;;;;;35.28;18.60;;;-0.30;99.90;;;;;;7364692;32;20107;-58
2022/03/04 00:05:45;;;;;;;31.48;17.35;;;-0.40;99.90;;;;;;7354915;32;20177;-58
2022/03/04 00:09:47;;;;;;;22.67;13.13;;;-0.40;99.90;;;;;;7362367;32;20126;-59
2022/03/04 00:13:48;;;;;;;21.02;12.68;;;-0.50;99.90;;;;;;7356134;32;20111;-58
2022/03/04 00:17:50;;;;;;;21.75;12.85;;;-0.50;99.90;;;;;;7358780;32;20125;-59
2022/03/04 00:21:52;;;;;;;18.55;10.57;;;-0.50;99.90;;;;;;7360254;32;20420;-59
2022/03/04 00:25:54;;;;;;;16.42;9.35;;;-0.60;99.90;;;;;;7369285;32;20190;-59
2022/03/04 00:29:56;;;;;;;16.33;9.23;;;-0.70;99.90;;;;;;7351660;32;20492;-58
2022/03/04 00:33:58;;;;;;;18.58;9.50;;;-0.70;99.90;;;;;;7353046;32;20216;-59
2022/03/04 00:37:59;;;;;;;19.05;10.80;;;-0.70;99.90;;;;;;7355886;32;20107;-59
2022/03/04 00:42:01;;;;;;;24.63;12.63;;;-0.70;99.90;;;;;;7359368;32;20110;-59
2022/03/04 00:46:03;;;;;;;23.90;13.45;;;-0.70;99.90;;;;;;7363716;32;20598;-58
2022/03/04 00:50:06;;;;;;;27.73;14.13;;;-0.80;99.90;;;;;;7357190;32;20190;-58
2022/03/04 00:54:08;;;;;;;25.02;13.57;;;-0.80;99.90;;;;;;7356713;32;20562;-59
2022/03/04 00:58:09;;;;;;;23.60;13.45;;;-0.80;99.90;;;;;;7357599;32;20756;-59
2022/03/04 01:02:11;;;;;;;26.05;15.15;;;-0.80;99.90;;;;;;7360929;32;20420;-59
2022/03/04 01:06:13;;;;;;;30.88;16.45;;;-1.00;99.90;;;;;;7357046;32;20103;-60
2022/03/04 01:10:16;;;;;;;30.37;15.75;;;-1.00;99.90;;;;;;7363258;32;20753;-61
2022/03/04 01:14:17;;;;;;;29.00;16.08;;;-0.90;99.90;;;;;;7363241;32;20110;-59
2022/03/04 01:18:19;;;;;;;39.53;21.00;;;-1.00;99.90;;;;;;7362934;32;20142;-60
2022/03/04 01:22:21;;;;;;;36.38;19.80;;;-1.00;99.90;;;;;;7367463;32;20592;-60
2022/03/04 01:26:23;;;;;;;36.50;20.65;;;-1.00;99.90;;;;;;7363088;32;20478;-59
2022/03/04 01:30:25;;;;;;;35.90;20.08;;;-1.10;99.90;;;;;;7359579;32;20226;-60
2022/03/04 01:34:26;;;;;;;31.77;16.80;;;-1.20;99.90;;;;;;7362615;32;20125;-60
2022/03/04 01:38:28;;;;;;;30.40;15.05;;;-1.20;99.90;;;;;;7361383;32;20623;-59
2022/03/04 01:42:31;;;;;;;25.52;13.30;;;-1.20;99.90;;;;;;7366477;32;20195;-59
2022/03/04 01:46:33;;;;;;;21.45;11.30;;;-1.20;99.90;;;;;;7352004;32;20226;-59
2022/03/04 01:50:35;;;;;;;16.70;9.18;;;-1.30;99.90;;;;;;7357675;32;20580;-60
2022/03/04 01:54:37;;;;;;;20.42;11.20;;;-1.30;99.90;;;;;;7354782;32;20115;-59
2022/03/04 01:58:39;;;;;;;19.65;10.93;;;-1.40;99.90;;;;;;7355531;32;20100;-59
2022/03/04 02:02:43;;;;;;;22.33;11.18;;;-1.40;99.90;;;;;;7359119;32;20245;-60
2022/03/04 02:06:45;;;;;;;23.50;13.25;;;-1.40;99.90;;;;;;7360391;32;20515;-59
2022/03/04 02:10:47;;;;;;;23.35;12.90;;;-1.40;99.90;;;;;;7357958;32;20107;-59
2022/03/04 02:14:49;;;;;;;25.42;13.43;;;-1.50;99.90;;;;;;7362215;32;20172;-59
2022/03/04 02:18:51;;;;;;;23.42;12.98;;;-1.50;99.90;;;;;;7353607;32;20107;-58
2022/03/04 02:22:52;;;;;;;25.75;13.45;;;-1.60;99.90;;;;;;7353871;32;20185;-59
2022/03/04 02:27:04;;;;;;;21.52;11.50;;;-1.50;99.90;;;;;;7357935;32;20108;-59
2022/03/04 02:31:05;;;;;;;22.65;12.45;;;-1.60;99.90;;;;;;7358599;32;20245;-59
2022/03/04 02:35:08;;;;;;;21.48;12.18;;;-1.60;99.90;;;;;;7362547;32;20102;-58
2022/03/04 02:39:10;;;;;;;23.35;13.05;;;-1.60;99.90;;;;;;7363144;32;20111;-58
2022/03/04 02:43:12;;;;;;;24.12;12.85;;;-1.70;99.90;;;;;;7357300;32;20238;-58
2022/03/04 02:47:14;;;;;;;22.23;12.93;;;-1.70;99.90;;;;;;7370411;32;20107;-60
2022/03/04 02:51:16;;;;;;;30.70;17.20;;;-1.70;99.90;;;;;;7369818;32;20189;-59
2022/03/04 02:55:17;;;;;;;32.42;18.40;;;-1.70;99.90;;;;;;7369811;32;20451;-59
2022/03/04 02:59:19;;;;;;;32.55;17.25;;;-1.80;99.90;;;;;;7365126;32;20221;-59
2022/03/04 03:03:21;;;;;;;25.85;14.55;;;-1.80;99.90;;;;;;7362540;32;20142;-58
2022/03/04 03:07:23;;;;;;;20.20;11.38;;;-1.80;99.90;;;;;;7372419;32;20202;-58
2022/03/04 03:11:25;;;;;;;24.12;11.68;;;-1.80;99.90;;;;;;7358382;32;20221;-59
2022/03/04 03:15:27;;;;;;;24.00;12.30;;;-1.90;99.90;;;;;;7363891;32;20126;-58
2022/03/04 03:19:29;;;;;;;21.58;11.45;;;-1.90;99.90;;;;;;7361992;32;20115;-58
2022/03/04 03:23:31;;;;;;;21.98;11.70;;;-1.90;99.90;;;;;;7361922;32;20268;-58
2022/03/04 03:27:34;;;;;;;20.65;10.55;;;-2.00;99.90;;;;;;7363131;32;20213;-59
2022/03/04 03:31:35;;;;;;;19.35;10.60;;;-2.00;99.90;;;;;;7358841;32;20278;-59
2022/03/04 03:35:37;;;;;;;20.58;10.60;;;-2.00;99.90;;;;;;7355607;32;20445;-58
2022/03/04 03:39:39;;;;;;;19.52;10.75;;;-2.00;99.90;;;;;;7359546;32;20121;-59
2022/03/04 03:43:41;;;;;;;21.48;10.68;;;-2.00;99.90;;;;;;7359921;32;20141;-59
2022/03/04 03:47:43;;;;;;;22.50;12.13;;;-2.00;99.90;;;;;;7359616;32;20127;-59
2022/03/04 03:51:44;;;;;;;23.30;11.57;;;-2.10;99.90;;;;;;7356906;32;20104;-58
2022/03/04 03:55:46;;;;;;;21.60;11.35;;;-2.10;99.90;;;;;;7366877;32;20620;-57
2022/03/04 03:59:48;;;;;;;23.35;10.88;;;-2.10;99.90;;;;;;7367827;32;20439;-60
2022/03/04 04:03:50;;;;;;;25.23;11.75;;;-2.10;99.90;;;;;;7360333;32;20107;-60
2022/03/04 04:07:52;;;;;;;19.55;11.25;;;-2.10;99.90;;;;;;7357434;32;20111;-60
2022/03/04 04:11:53;;;;;;;23.87;12.05;;;-2.20;99.90;;;;;;7366827;32;20134;-60
2022/03/04 04:15:55;;;;;;;22.48;11.57;;;-2.20;99.90;;;;;;7361033;32;20186;-59
2022/03/04 04:19:57;;;;;;;20.73;10.80;;;-2.20;99.90;;;;;;7364056;32;20110;-59
2022/03/04 04:23:59;;;;;;;23.02;11.95;;;-2.20;99.90;;;;;;7359615;32;20978;-59
2022/03/04 04:28:01;;;;;;;19.87;10.50;;;-2.30;99.90;;;;;;7366450;32;20174;-60
2022/03/04 04:32:03;;;;;;;21.40;11.55;;;-2.30;99.90;;;;;;7355278;32;20145;-59
2022/03/04 04:36:05;;;;;;;20.98;11.77;;;-2.30;99.90;;;;;;7361157;32;20103;-59
2022/03/04 04:40:08;;;;;;;20.33;10.38;;;-2.30;99.90;;;;;;7364954;32;20161;-60
2022/03/04 04:44:11;;;;;;;21.23;10.75;;;-2.30;99.90;;;;;;7365197;32;20156;-59
2022/03/04 04:48:13;;;;;;;24.12;10.85;;;-2.40;99.90;;;;;;7354365;32;20160;-59
2022/03/04 04:52:15;;;;;;;21.20;10.98;;;-2.40;99.90;;;;;;7358352;32;20217;-59
2022/03/04 04:56:17;;;;;;;21.42;11.18;;;-2.40;99.90;;;;;;7366995;32;20522;-59
2022/03/04 05:00:19;;;;;;;23.38;11.15;;;-2.40;99.90;;;;;;7360125;32;20807;-59
2022/03/04 05:04:20;;;;;;;22.20;11.15;;;-2.40;99.90;;;;;;7359981;32;20107;-59
2022/03/04 05:08:24;;;;;;;20.73;11.18;;;-2.50;99.90;;;;;;7362348;32;20119;-59
2022/03/04 05:12:26;;;;;;;21.37;10.57;;;-2.50;99.90;;;;;;7359959;32;20150;-59
2022/03/04 05:16:28;;;;;;;22.33;11.30;;;-2.50;99.90;;;;;;7357062;32;20122;-59
2022/03/04 05:20:29;;;;;;;20.35;11.10;;;-2.50;99.90;;;;;;7360304;32;20603;-59
2022/03/04 05:24:31;;;;;;;18.17;10.68;;;-2.50;99.90;;;;;;7357012;32;20198;-58
2022/03/04 05:28:40;;;;;;;23.05;11.90;;;-2.50;99.90;;;;;;7355143;32;20130;-58
2022/03/04 05:32:42;;;;;;;23.83;11.68;;;-2.50;99.90;;;;;;7360120;32;20237;-58
2022/03/04 05:36:44;;;;;;;22.25;11.18;;;-2.50;99.90;;;;;;7359861;32;20111;-58
2022/03/04 05:40:45;;;;;;;21.85;12.15;;;-2.60;99.90;;;;;;7355519;32;20479;-58
2022/03/04 05:44:47;;;;;;;21.02;10.98;;;-2.60;99.90;;;;;;7355622;32;20111;-59
2022/03/04 05:48:49;;;;;;;22.08;10.45;;;-2.80;99.90;;;;;;7359011;32;20121;-59
2022/03/04 05:52:51;;;;;;;22.48;10.90;;;-2.70;99.90;;;;;;7367781;32;20130;-58
2022/03/04 05:56:56;;;;;;;23.10;10.80;;;-2.70;99.90;;;;;;7358793;32;20206;-59
2022/03/04 06:00:58;;;;;;;22.58;12.43;;;-2.70;99.90;;;;;;7362086;32;20162;-59
2022/03/04 06:04:59;;;;;;;20.88;10.48;;;-2.70;99.90;;;;;;7364615;32;20534;-58
2022/03/04 06:09:02;;;;;;;21.50;11.27;;;-2.70;99.90;;;;;;7357306;32;20917;-60
2022/03/04 06:13:03;;;;;;;26.35;11.80;;;-2.70;99.90;;;;;;7367257;32;20103;-60
2022/03/04 06:17:05;;;;;;;21.42;11.88;;;-2.80;99.90;;;;;;7367915;32;20128;-60
2022/03/04 06:21:11;;;;;;;26.05;11.43;;;-2.80;99.90;;;;;;7360415;32;20308;-59
2022/03/04 06:25:16;;;;;;;20.67;10.75;;;-2.80;99.90;;;;;;7365822;32;20206;-58
2022/03/04 06:29:18;;;;;;;19.52;10.88;;;-2.80;99.90;;;;;;7360868;32;20107;-58
2022/03/04 06:33:30;;;;;;;19.80;11.07;;;-2.70;99.90;;;;;;7355204;32;20220;-58
2022/03/04 06:37:31;;;;;;;21.17;11.25;;;-2.70;99.90;;;;;;7352877;32;20236;-59
2022/03/04 06:41:33;;;;;;;22.17;11.27;;;-2.70;99.90;;;;;;7357941;32;20267;-59
2022/03/04 06:45:35;;;;;;;24.75;11.73;;;-2.70;99.90;;;;;;7352090;32;20145;-59
2022/03/04 06:49:38;;;;;;;21.73;11.65;;;-2.80;99.90;;;;;;7359706;32;20699;-59
2022/03/04 06:53:39;;;;;;;25.55;13.57;;;-2.80;99.90;;;;;;7361908;32;20111;-59
2022/03/04 06:57:41;;;;;;;24.48;12.30;;;-2.70;99.90;;;;;;7360777;32;20174;-59
2022/03/04 07:01:43;;;;;;;25.27;12.00;;;-2.60;99.90;;;;;;7358609;32;20257;-60
2022/03/04 07:05:46;;;;;;;23.42;12.20;;;-2.50;99.90;;;;;;7356913;32;20181;-59
2022/03/04 07:09:47;;;;;;;25.37;13.18;;;-2.40;99.90;;;;;;7362725;32;20751;-58
2022/03/04 07:13:49;;;;;;;25.88;12.37;;;-2.40;99.90;;;;;;7366626;32;20157;-59
2022/03/04 07:17:51;;;;;;;34.50;14.20;;;-2.30;99.90;;;;;;7359355;32;20309;-59
2022/03/04 07:21:52;;;;;;;32.53;13.65;;;-2.30;99.90;;;;;;7357735;32;20539;-59
2022/03/04 07:25:54;;;;;;;35.33;14.30;;;-2.20;99.90;;;;;;7354794;32;20738;-59
2022/03/04 07:29:56;;;;;;;32.25;14.05;;;-2.20;99.90;;;;;;7356781;32;20420;-59
2022/03/04 07:33:58;;;;;;;32.42;13.88;;;-2.10;99.90;;;;;;7359178;32;20213;-58
2022/03/04 07:37:59;;;;;;;31.10;13.80;;;-2.00;99.90;;;;;;7358221;32;20573;-59
2022/03/04 07:42:01;;;;;;;37.55;14.85;;;-1.90;99.90;;;;;;7352622;32;20239;-59
2022/03/04 07:46:03;;;;;;;39.55;14.87;;;-1.80;99.90;;;;;;7356049;32;20126;-59
2022/03/04 07:50:08;;;;;;;39.30;14.87;;;-1.70;99.90;;;;;;7355172;32;20176;-59
2022/03/04 07:54:10;;;;;;;32.80;14.40;;;-1.60;99.90;;;;;;7353805;32;20290;-59
2022/03/04 07:58:11;;;;;;;34.42;13.85;;;-1.50;99.90;;;;;;7355767;32;20115;-59
2022/03/04 08:02:13;;;;;;;34.30;14.65;;;-1.40;99.90;;;;;;7358126;32;20451;-59
2022/03/04 08:06:15;;;;;;;28.48;13.07;;;-1.30;99.90;;;;;;7353632;32;20125;-59
2022/03/04 08:10:17;;;;;;;29.37;13.38;;;-1.10;99.90;;;;;;7356939;32;20201;-59
2022/03/04 08:14:19;;;;;;;28.08;13.85;;;-0.90;99.90;;;;;;7353110;32;20256;-59
2022/03/04 08:18:20;;;;;;;29.85;13.23;;;-0.60;99.90;;;;;;7357222;32;20285;-58
2022/03/04 08:22:22;;;;;;;30.15;13.20;;;-0.40;99.90;;;;;;7354846;32;20211;-59
2022/03/04 08:26:28;;;;;;;27.37;13.68;;;-0.20;99.90;;;;;;7354992;32;20440;-59
2022/03/04 08:30:34;;;;;;;27.57;14.07;;;0.00;99.90;;;;;;7357814;32;20124;-58
2022/03/04 08:34:36;;;;;;;25.20;13.52;;;0.30;99.90;;;;;;7350578;32;20476;-59
2022/03/04 08:38:38;;;;;;;25.35;13.90;;;0.90;99.90;;;;;;7357450;32;20278;-59
2022/03/04 08:42:42;;;;;;;29.37;14.38;;;1.20;99.90;;;;;;7360113;32;20145;-61
2022/03/04 08:46:44;;;;;;;27.65;14.82;;;1.40;99.90;;;;;;7353623;32;20816;-60
2022/03/04 08:50:46;;;;;;;23.40;14.07;;;1.80;99.90;;;;;;7349345;32;20165;-59
2022/03/04 08:54:47;;;;;;;24.67;14.30;;;2.30;99.90;;;;;;7354138;32;20146;-59
2022/03/04 08:58:49;;;;;;;26.73;14.45;;;2.80;99.90;;;;;;7351501;32;20186;-59
2022/03/04 09:02:51;;;;;;;27.50;14.48;;;3.10;99.90;;;;;;7360125;32;20467;-59
2022/03/04 09:06:53;;;;;;;24.60;14.68;;;3.50;99.90;;;;;;7353106;32;20112;-59
2022/03/04 09:10:55;;;;;;;25.52;15.18;;;4.20;99.90;;;;;;7354854;32;20496;-60
2022/03/04 09:14:56;;;;;;;28.48;16.25;;;5.40;99.90;;;;;;7354408;32;20103;-60
2022/03/04 09:18:58;;;;;;;26.70;15.50;;;6.80;99.90;;;;;;7353024;32;20111;-60
2022/03/04 09:23:00;;;;;;;28.40;15.75;;;7.90;99.90;;;;;;7350450;32;20272;-59
2022/03/04 09:27:02;;;;;;;26.20;16.33;;;8.70;99.90;;;;;;7355146;32;20339;-59
2022/03/04 09:31:07;;;;;;;25.55;16.15;;;9.60;92.60;;;;;;7352921;32;20234;-67
2022/03/04 09:35:09;;;;;;;23.10;15.38;;;10.50;90.60;;;;;;7351489;32;20129;-61
2022/03/04 09:39:11;;;;;;;26.73;16.48;;;11.20;81.60;;;;;;7365675;32;20263;-60
2022/03/04 09:43:13;;;;;;;23.83;15.30;;;11.70;71.20;;;;;;7368706;32;20480;-60
2022/03/04 09:47:20;;;;;;;24.75;15.98;;;12.50;67.50;;;;;;7360329;32;20533;-61
2022/03/04 09:51:22;;;;;;;22.20;15.60;;;12.80;67.90;;;;;;7364624;32;20194;-67
2022/03/04 09:55:24;;;;;;;25.75;16.65;;;13.30;59.60;;;;;;7369905;32;20517;-57
2022/03/04 09:59:26;;;;;;;24.58;16.75;;;13.90;60.00;;;;;;7364851;32;20928;-61
2022/03/04 10:03:30;;;;;;;23.33;16.65;;;15.10;56.30;;;;;;7365200;32;20956;-61
2022/03/04 10:07:45;;;;;;;21.60;16.23;;;15.90;53.40;;;;;;7367574;32;20236;-61
2022/03/04 10:11:47;;;;;;;21.35;16.30;;;15.00;51.70;;;;;;7356846;32;20266;-66
2022/03/04 10:15:55;;;;;;;21.42;16.83;;;16.10;48.90;;;;;;7358795;32;20107;-60
2022/03/04 10:19:59;;;;;;;24.17;17.15;;;16.60;51.00;;;;;;7359205;32;20618;-59
2022/03/04 10:24:20;;;;;;;20.42;16.75;;;16.60;46.30;;;;;;7355460;32;21139;-68
2022/03/04 10:28:24;;;;;;;20.65;16.30;;;17.50;44.10;;;;;;7360102;32;20559;-59
2022/03/04 10:32:28;;;;;;;20.23;16.08;;;18.00;42.50;;;;;;7356726;32;20329;-60
2022/03/04 10:36:33;;;;;;;21.20;16.60;;;17.90;42.70;;;;;;7366067;32;20191;-67
2022/03/04 10:40:43;;;;;;;21.10;16.25;;;17.20;44.30;;;;;;7373363;32;20157;-60
2022/03/04 10:45:07;;;;;;;24.23;17.10;;;16.80;44.70;;;;;;7354844;32;20729;-59
2022/03/04 10:49:09;;;;;;;24.37;17.42;;;15.90;44.90;;;;;;7364540;32;20107;-59
2022/03/04 10:53:30;;;;;;;24.92;17.83;;;14.20;47.70;;;;;;7358969;32;20126;-59
2022/03/04 10:57:41;;;;;;;22.95;15.85;;;12.50;51.50;;;;;;7358851;32;20273;-58
2022/03/04 11:01:48;;;;;;;24.70;16.98;;;11.60;54.20;;;;;;7357890;32;20570;-61
2022/03/04 11:05:54;;;;;;;24.05;15.40;;;10.80;55.80;;;;;;7358504;32;20104;-67
2022/03/04 11:09:56;;;;;;;23.05;15.20;;;10.30;57.50;;;;;;7353019;32;20107;-59
2022/03/04 11:13:59;;;;;;;23.70;15.38;;;10.10;59.00;;;;;;7357395;32;20651;-59
2022/03/04 11:18:08;;;;;;;21.83;14.00;;;9.80;59.10;;;;;;7360537;32;20205;-63
2022/03/04 11:22:11;;;;;;;23.55;14.70;;;9.60;60.90;;;;;;7361712;32;20126;-59
2022/03/04 11:26:16;;;;;;;23.98;14.63;;;9.30;60.20;;;;;;7366624;32;20137;-59
2022/03/04 11:30:39;;;;;;;22.15;13.15;;;9.40;61.10;;;;;;7364898;32;20244;-59
2022/03/04 11:34:46;;;;;;;21.00;13.15;;;8.90;59.90;;;;;;7353467;32;20103;-59
2022/03/04 11:38:48;;;;;;;20.02;12.02;;;9.10;59.00;;;;;;7361001;32;20228;-61
2022/03/04 11:42:52;;;;;;;20.15;12.73;;;9.40;59.90;;;;;;7364974;32;20099;-68
2022/03/04 11:47:00;;;;;;;19.27;13.25;;;10.10;57.00;;;;;;7359670;32;20736;-60
2022/03/04 11:51:17;;;;;;;21.67;13.52;;;9.90;55.90;;;;;;7357171;32;20237;-59
2022/03/04 11:55:26;;;;;;;20.87;13.60;;;10.60;56.30;;;;;;7352836;32;20667;-68
2022/03/04 11:59:27;;;;;;;18.40;12.98;;;11.20;52.80;;;;;;7355711;32;20347;-60
2022/03/04 12:03:29;;;;;;;19.27;12.43;;;12.60;50.30;;;;;;7358149;32;20206;-59
2022/03/04 12:07:34;;;;;;;19.27;13.57;;;13.20;49.20;;;;;;7366573;32;20103;-59
2022/03/04 12:11:37;;;;;;;18.58;13.07;;;13.80;47.50;;;;;;7366905;32;20269;-60
2022/03/04 12:15:42;;;;;;;22.35;13.32;;;14.20;46.60;;;;;;7355804;32;20195;-66
2022/03/04 12:19:45;;;;;;;17.35;12.82;;;14.40;45.80;;;;;;7361643;32;20347;-60
2022/03/04 12:23:49;;;;;;;17.92;13.62;;;15.20;44.70;;;;;;7357863;32;20525;-60
2022/03/04 12:28:15;;;;;;;17.87;12.55;;;15.20;44.80;;;;;;7357464;32;20186;-59
2022/03/04 12:32:17;;;;;;;18.33;13.25;;;15.50;42.90;;;;;;7359780;32;20220;-60
2022/03/04 12:36:19;;;;;;;16.95;13.13;;;15.10;42.30;;;;;;7360058;32;20508;-60
2022/03/04 12:40:24;;;;;;;16.73;11.85;;;15.20;41.60;;;;;;7362328;32;20107;-68
2022/03/04 12:44:29;;;;;;;17.10;12.48;;;15.20;41.40;;;;;;7360391;32;20232;-59
2022/03/04 12:48:31;;;;;;;18.05;12.48;;;14.90;41.80;;;;;;7368527;32;20473;-59
2022/03/04 12:52:35;;;;;;;19.40;11.65;;;13.60;43.50;;;;;;7358031;32;20099;-59
2022/03/04 12:56:37;;;;;;;20.05;12.43;;;14.00;44.20;;;;;;7365601;32;20103;-59
2022/03/04 13:00:42;;;;;;;16.92;11.38;;;13.70;45.40;;;;;;7354621;32;20234;-66
2022/03/04 13:05:00;;;;;;;19.45;12.75;;;13.40;44.20;;;;;;7361979;32;20202;-60
2022/03/04 13:09:11;;;;;;;15.82;11.05;;;13.70;45.20;;;;;;7360711;32;20220;-60
2022/03/04 13:13:13;;;;;;;17.50;11.77;;;13.70;45.60;;;;;;7354566;32;20130;-60
2022/03/04 13:17:15;;;;;;;16.00;10.50;;;13.00;45.90;;;;;;7360540;32;20217;-60
2022/03/04 13:21:17;;;;;;;17.05;10.43;;;13.10;44.50;;;;;;7362260;32;20130;-60
2022/03/04 13:25:31;;;;;;;16.27;10.82;;;13.20;44.70;;;;;;7361067;32;20314;-64
2022/03/04 13:29:36;;;;;;;15.43;10.30;;;13.70;43.30;;;;;;7357066;32;20161;-60
2022/03/04 13:33:38;;;;;;;19.08;11.15;;;13.90;44.90;;;;;;7356147;32;20103;-62
2022/03/04 13:38:00;;;;;;;16.60;10.98;;;14.00;43.40;;;;;;7360997;32;20221;-60
2022/03/04 13:42:19;;;;;;;18.62;11.38;;;14.50;42.10;;;;;;7355678;32;20696;-62
2022/03/04 13:46:20;;;;;;;18.77;12.05;;;15.20;42.10;;;;;;7359615;32;20121;-58
2022/03/04 13:50:22;;;;;;;16.42;11.93;;;15.70;41.60;;;;;;7356736;32;20111;-58
2022/03/04 13:54:48;;;;;;;15.48;11.93;;;15.60;41.50;;;;;;7357504;32;20485;-57
2022/03/04 13:58:57;;;;;;;20.10;12.27;;;16.70;40.10;;;;;;7358764;32;20222;-60
2022/03/04 14:03:10;;;;;;;20.12;13.00;;;16.30;39.70;;;;;;7350269;32;20121;-60
2022/03/04 14:07:17;;;;;;;18.48;12.68;;;15.30;40.40;;;;;;7355321;32;20156;-66
2022/03/04 14:11:18;;;;;;;16.73;12.73;;;15.30;42.30;;;;;;7356710;32;20133;-60
2022/03/04 14:15:20;;;;;;;18.33;13.35;;;16.20;41.40;;;;;;7352535;32;20190;-61
2022/03/04 14:19:22;;;;;;;20.92;13.52;;;16.70;41.20;;;;;;7361789;32;20162;-60
2022/03/04 14:23:24;;;;;;;18.73;13.23;;;16.50;40.40;;;;;;7361491;32;20137;-60
2022/03/04 14:27:26;;;;;;;16.73;12.57;;;15.70;41.10;;;;;;7360286;32;20239;-68
2022/03/04 14:31:28;;;;;;;18.17;12.05;;;15.70;41.60;;;;;;7357870;32;20111;-60
2022/03/04 14:35:31;;;;;;;20.30;13.55;;;15.90;39.20;;;;;;7361979;32;20150;-60
2022/03/04 14:39:33;;;;;;;19.50;12.45;;;15.20;41.50;;;;;;7356931;32;20214;-60
2022/03/04 14:43:35;;;;;;;20.23;13.13;;;14.80;42.50;;;;;;7362880;32;20204;-59
2022/03/04 14:47:42;;;;;;;19.23;13.05;;;14.10;44.30;;;;;;7365270;32;20453;-67
2022/03/04 14:51:45;;;;;;;19.60;14.05;;;13.70;45.40;;;;;;7363891;32;20519;-60
2022/03/04 14:55:47;;;;;;;19.83;12.60;;;12.70;47.10;;;;;;7365359;32;20234;-59
2022/03/04 14:59:49;;;;;;;20.37;13.18;;;11.90;49.30;;;;;;7362944;32;20107;-60
2022/03/04 15:03:51;;;;;;;22.75;12.73;;;11.60;50.00;;;;;;7360331;32;20111;-59
2022/03/04 15:07:54;;;;;;;16.95;11.90;;;11.20;51.40;;;;;;7354998;32;20134;-68
2022/03/04 15:11:56;;;;;;;25.23;13.40;;;11.00;52.10;;;;;;7367896;32;20111;-59
2022/03/04 15:15:58;;;;;;;26.08;14.55;;;10.80;54.40;;;;;;7357216;32;20106;-59
2022/03/04 15:20:02;;;;;;;19.83;12.85;;;10.60;56.20;;;;;;7359868;32;20271;-59
2022/03/04 15:24:08;;;;;;;20.45;13.18;;;10.40;58.50;;;;;;7360567;32;20578;-60
2022/03/04 15:28:09;;;;;;;23.92;13.95;;;10.50;59.20;;;;;;7359139;32;20172;-67
2022/03/04 15:32:13;;;;;;;25.17;13.57;;;10.30;59.60;;;;;;7356496;32;20177;-58
2022/03/04 15:36:15;;;;;;;20.23;13.40;;;10.10;60.10;;;;;;7359212;32;20126;-58
2022/03/04 15:40:17;;;;;;;23.20;12.75;;;9.90;63.00;;;;;;7356714;32;20104;-58
2022/03/04 15:44:21;;;;;;;22.40;13.02;;;9.70;62.50;;;;;;7363047;32;20182;-58
2022/03/04 15:48:23;;;;;;;22.23;11.98;;;9.60;64.10;;;;;;7361399;32;20202;-66
2022/03/04 15:52:25;;;;;;;23.12;13.10;;;9.40;66.50;;;;;;7362262;32;20512;-60
2022/03/04 15:56:29;;;;;;;19.95;11.88;;;9.10;67.40;;;;;;7364119;32;20219;-68
2022/03/04 16:00:31;;;;;;;17.75;11.23;;;9.10;68.60;;;;;;7362173;32;20125;-59
2022/03/04 16:04:33;;;;;;;17.52;10.55;;;8.90;66.60;;;;;;7367461;32;20509;-59
2022/03/04 16:08:35;;;;;;;19.75;10.60;;;8.70;67.60;;;;;;7366127;32;20220;-58
2022/03/04 16:12:37;;;;;;;27.60;11.75;;;8.60;67.90;;;;;;7360901;32;20221;-58
2022/03/04 16:16:39;;;;;;;17.35;10.18;;;8.40;68.90;;;;;;7351649;32;20107;-66
2022/03/04 16:20:41;;;;;;;16.50;10.10;;;8.40;70.10;;;;;;7350930;32;20332;-61
2022/03/04 16:29:46;;;;;;;20.05;9.50;;;8.10;73.60;;;;;;7352990;32;20091;-59
2022/03/04 16:33:50;;;;;;;18.08;9.45;;;8.00;73.60;;;;;;7358072;32;20158;-59
2022/03/04 16:37:52;;;;;;;18.87;8.68;;;7.80;77.00;;;;;;7360489;32;20282;-59
2022/03/04 16:41:54;;;;;;;18.67;9.68;;;7.80;74.90;;;;;;7362255;32;20107;-59
2022/03/04 16:45:56;;;;;;;15.15;8.98;;;7.60;77.60;;;;;;7356322;32;20597;-67
2022/03/04 16:50:17;;;;;;;15.50;8.75;;;7.50;79.80;;;;;;7351712;32;20245;-59
2022/03/04 16:54:21;;;;;;;15.52;8.25;;;7.30;82.50;;;;;;7358096;32;20142;-59
2022/03/04 16:58:23;;;;;;;14.63;8.13;;;7.20;82.10;;;;;;7354855;32;20589;-66
2022/03/04 17:02:25;;;;;;;16.87;9.10;;;7.10;84.40;;;;;;7359054;32;20569;-59
2022/03/04 17:06:26;;;;;;;17.05;9.15;;;6.90;88.00;;;;;;7364186;32;20103;-61
2022/03/04 17:10:28;;;;;;;16.73;7.90;;;6.80;90.10;;;;;;7365585;32;20556;-60
2022/03/04 17:14:30;;;;;;;12.25;6.87;;;6.60;90.20;;;;;;7349902;32;20206;-60
2022/03/04 17:18:33;;;;;;;15.63;7.55;;;6.50;91.20;;;;;;7356252;32;20208;-59
2022/03/04 17:22:43;;;;;;;11.70;6.18;;;6.50;91.10;;;;;;7368730;32;20517;-60
2022/03/04 17:26:52;;;;;;;11.82;7.00;;;6.30;91.70;;;;;;7358044;32;20232;-60
2022/03/04 17:31:02;;;;;;;18.48;7.35;;;6.10;93.20;;;;;;7363493;32;20450;-58
2022/03/04 17:35:04;;;;;;;14.63;7.45;;;5.90;94.50;;;;;;7365748;32;20102;-59
2022/03/04 17:39:06;;;;;;;15.05;7.70;;;5.80;95.70;;;;;;7359357;32;20670;-58
2022/03/04 17:43:08;;;;;;;13.27;6.55;;;5.80;97.40;;;;;;7362082;32;20141;-59
2022/03/04 17:47:10;;;;;;;14.93;7.32;;;5.70;98.20;;;;;;7366071;32;20160;-59
2022/03/04 17:51:11;;;;;;;15.50;7.43;;;5.60;99.90;;;;;;7361209;32;20125;-59
2022/03/04 17:55:13;;;;;;;16.92;7.50;;;5.50;99.90;;;;;;7370350;32;20510;-59
2022/03/04 17:59:15;;;;;;;13.88;7.28;;;5.40;99.90;;;;;;7368443;32;20140;-58
2022/03/04 18:03:25;;;;;;;15.07;8.15;;;5.20;99.90;;;;;;7370288;32;20127;-59
2022/03/04 18:07:27;;;;;;;14.23;7.05;;;5.00;99.90;;;;;;7367883;32;20180;-60
2022/03/04 18:11:29;;;;;;;11.85;6.72;;;4.90;99.90;;;;;;7371804;32;20370;-58
2022/03/04 18:15:30;;;;;;;14.43;7.53;;;4.80;99.90;;;;;;7371718;32;20241;-60
2022/03/04 18:19:32;;;;;;;15.85;7.87;;;4.60;99.90;;;;;;7360342;32;20119;-58
2022/03/04 18:23:34;;;;;;;14.18;7.87;;;4.50;99.90;;;;;;7372365;32;20134;-58
2022/03/04 18:27:46;;;;;;;14.95;7.37;;;4.40;99.90;;;;;;7365801;32;20217;-59
2022/03/04 18:31:48;;;;;;;14.43;8.05;;;4.30;99.90;;;;;;7362370;32;20198;-58
2022/03/04 18:35:50;;;;;;;14.85;8.35;;;4.30;99.90;;;;;;7367838;32;20999;-59
2022/03/04 18:40:10;;;;;;;14.87;8.07;;;4.20;99.90;;;;;;7364743;32;20631;-58
2022/03/04 18:44:12;;;;;;;15.77;7.30;;;4.30;99.90;;;;;;7372014;32;20111;-58
2022/03/04 18:48:14;;;;;;;18.50;8.35;;;4.30;99.90;;;;;;7362565;32;20507;-59
2022/03/04 18:52:15;;;;;;;17.70;8.60;;;4.40;99.90;;;;;;7362446;32;20107;-60
2022/03/04 18:56:17;;;;;;;12.70;7.55;;;4.40;99.90;;;;;;7364191;32;20122;-60
2022/03/04 19:00:19;;;;;;;16.73;8.90;;;4.40;99.90;;;;;;7363599;32;20500;-61
2022/03/04 19:04:22;;;;;;;18.48;8.68;;;4.40;99.90;;;;;;7360370;32;20124;-59
2022/03/04 19:08:23;;;;;;;18.35;9.30;;;4.40;99.90;;;;;;7367958;32;20119;-60
2022/03/04 19:12:25;;;;;;;18.17;9.27;;;4.20;99.90;;;;;;7360180;32;20106;-59
2022/03/04 19:16:27;;;;;;;21.02;10.23;;;4.20;99.90;;;;;;7367945;32;20256;-58
2022/03/04 19:20:30;;;;;;;18.02;8.88;;;4.10;99.90;;;;;;7361088;32;20175;-59
2022/03/04 19:24:33;;;;;;;20.23;9.38;;;4.00;99.90;;;;;;7368862;32;20257;-61
2022/03/04 19:28:36;;;;;;;18.80;9.15;;;4.00;99.90;;;;;;7364679;32;20194;-59
2022/03/04 19:32:38;;;;;;;18.60;9.32;;;4.00;99.90;;;;;;7363461;32;20107;-61
2022/03/04 19:36:40;;;;;;;19.48;9.63;;;3.90;99.90;;;;;;7364679;32;20205;-60
2022/03/04 19:40:42;;;;;;;19.33;9.60;;;3.80;99.90;;;;;;7364148;32;20121;-61
2022/03/04 19:44:44;;;;;;;18.90;9.63;;;3.80;99.90;;;;;;7368071;32;20145;-60
2022/03/04 19:48:46;;;;;;;21.58;10.05;;;3.80;99.90;;;;;;7367040;32;21476;-60
2022/03/04 19:52:48;;;;;;;20.52;10.23;;;3.70;99.90;;;;;;7363609;32;20141;-60
2022/03/04 19:56:51;;;;;;;20.30;10.15;;;3.70;99.90;;;;;;7365101;32;20115;-60
2022/03/04 20:00:52;;;;;;;19.12;10.02;;;3.60;99.90;;;;;;7360457;32;20129;-60
2022/03/04 20:04:54;;;;;;;23.00;9.98;;;3.60;99.90;;;;;;7359680;32;20222;-62
2022/03/04 20:08:56;;;;;;;24.45;10.60;;;3.50;99.90;;;;;;7362604;32;20794;-60
2022/03/04 20:12:59;;;;;;;21.75;9.90;;;3.40;99.90;;;;;;7362532;32;20149;-60
2022/03/04 20:17:02;;;;;;;24.17;9.90;;;3.30;99.90;;;;;;7360336;32;20197;-59
2022/03/04 20:21:05;;;;;;;25.88;11.82;;;3.20;99.90;;;;;;7362971;32;20171;-61
2022/03/04 20:25:07;;;;;;;23.65;11.48;;;3.00;99.90;;;;;;7364360;32;20125;-60
2022/03/04 20:29:09;;;;;;;24.92;11.65;;;3.10;99.90;;;;;;7368319;32;20099;-60
2022/03/04 20:33:11;;;;;;;25.85;11.15;;;3.00;99.90;;;;;;7364639;32;20588;-60
2022/03/04 20:37:13;;;;;;;23.85;12.13;;;2.90;99.90;;;;;;7364534;32;20760;-59
2022/03/04 20:41:18;;;;;;;23.65;11.75;;;2.80;99.90;;;;;;7358056;32;20564;-60
2022/03/04 20:45:20;;;;;;;27.08;11.95;;;2.70;99.90;;;;;;7360542;32;20172;-59